sensor_id;sensor_type;location;lat;lon;timestamp;pressure;altitude;pressure_sealevel;temperature;humidity
48563;BME280;34981;49.104;11.396;2022-11-20T00:01:47;97586.31;;;0.07;100.00
48563;BME280;34981;49.104;11.396;2022-11-20T00:04:14;97580.69;;;0.10;100.00
48563;BME280;34981;49.104;11.396;2022-11-20T00:06:41;97581.03;;;0.07;100.00
48563;BME280;34981;49.104;11.396;2022-11-20T00:09:08;97568.44;;;0.00;100.00
48563;BME280;34981;49.104;11.396;2022-11-20T00:11:36;97566.44;;;-0.06;100.00
48563;BME280;34981;49.104;11.396;2022-11-20T00:14:03;97558.69;;;-0.07;100.00
48563;BME280;34981;49.104;11.396;2022-11-20T00:16:31;97559.50;;;-0.07;100.00
48563;BME280;34981;49.104;11.396;2022-11-20T00:18:59;97556.03;;;-0.07;100.00
48563;BME280;34981;49.104;11.396;2022-11-20T00:21:26;97569.91;;;-0.05;100.00
48563;BME280;34981;49.104;11.396;2022-11-20T00:23:54;97568.44;;;-0.08;100.00
48563;BME280;34981;49.104;11.396;2022-11-20T00:26:23;97569.75;;;-0.12;100.00
48563;BME280;34981;49.104;11.396;2022-11-20T00:28:51;97572.41;;;-0.12;100.00
48563;BME280;34981;49.104;11.396;2022-11-20T00:31:18;97569.06;;;-0.14;100.00
48563;BME280;34981;49.104;11.396;2022-11-20T00:33:46;97567.75;;;-0.18;100.00
48563;BME280;34981;49.104;11.396;2022-11-20T00:38:40;97578.81;;;-0.14;100.00
48563;BME280;34981;49.104;11.396;2022-11-20T00:41:08;97575.72;;;-0.10;100.00
48563;BME280;34981;49.104;11.396;2022-11-20T00:43:36;97579.03;;;-0.08;100.00
48563;BME280;34981;49.104;11.396;2022-11-20T00:46:05;97587.94;;;-0.09;100.00
48563;BME280;34981;49.104;11.396;2022-11-20T00:48:32;97589.78;;;-0.01;100.00
48563;BME280;34981;49.104;11.396;2022-11-20T00:51:00;97588.28;;;0.05;100.00
48563;BME280;34981;49.104;11.396;2022-11-20T00:53:27;97585.13;;;0.09;100.00
48563;BME280;34981;49.104;11.396;2022-11-20T00:55:58;97591.59;;;0.07;100.00
48563;BME280;34981;49.104;11.396;2022-11-20T00:58:28;97597.19;;;0.04;100.00
48563;BME280;34981;49.104;11.396;2022-11-20T01:01:01;97591.59;;;0.07;100.00
48563;BME280;34981;49.104;11.396;2022-11-20T01:03:33;97587.44;;;0.04;100.00
48563;BME280;34981;49.104;11.396;2022-11-20T01:06:04;97582.47;;;0.01;100.00
48563;BME280;34981;49.104;11.396;2022-11-20T01:08:34;97589.78;;;-0.01;100.00
48563;BME280;34981;49.104;11.396;2022-11-20T01:11:06;97595.88;;;-0.01;100.00
48563;BME280;34981;49.104;11.396;2022-11-20T01:13:34;97587.28;;;-0.03;100.00
48563;BME280;34981;49.104;11.396;2022-11-20T01:16:14;97589.94;;;-0.03;100.00
48563;BME280;34981;49.104;11.396;2022-11-20T01:18:43;97584.94;;;-0.06;100.00
48563;BME280;34981;49.104;11.396;2022-11-20T01:21:11;97583.28;;;-0.07;100.00
48563;BME280;34981;49.104;11.396;2022-11-20T01:23:40;97587.44;;;-0.04;100.00
48563;BME280;34981;49.104;11.396;2022-11-20T01:26:10;97583.81;;;-0.03;100.00
48563;BME280;34981;49.104;11.396;2022-11-20T01:28:39;97584.28;;;0.00;100.00
48563;BME280;34981;49.104;11.396;2022-11-20T01:31:13;97580.50;;;0.03;100.00
48563;BME280;34981;49.104;11.396;2022-11-20T01:33:40;97586.63;;;0.04;100.00
48563;BME280;34981;49.104;11.396;2022-11-20T01:36:08;97584.81;;;0.04;100.00
48563;BME280;34981;49.104;11.396;2022-11-20T01:38:35;97576.88;;;0.04;100.00
48563;BME280;34981;49.104;11.396;2022-11-20T01:41:03;97582.16;;;0.04;100.00
48563;BME280;34981;49.104;11.396;2022-11-20T01:43:30;97583.00;;;0.05;100.00
48563;BME280;34981;49.104;11.396;2022-11-20T01:48:25;97588.59;;;0.02;100.00
48563;BME280;34981;49.104;11.396;2022-11-20T01:50:53;97583.31;;;0.02;100.00
48563;BME280;34981;49.104;11.396;2022-11-20T01:53:22;97586.94;;;0.00;100.00
48563;BME280;34981;49.104;11.396;2022-11-20T01:55:52;97586.94;;;0.00;100.00
48563;BME280;34981;49.104;11.396;2022-11-20T01:58:20;97580.84;;;0.00;100.00
48563;BME280;34981;49.104;11.396;2022-11-20T02:00:48;97579.84;;;0.01;100.00
48563;BME280;34981;49.104;11.396;2022-11-20T02:03:16;97580.50;;;0.03;100.00
48563;BME280;34981;49.104;11.396;2022-11-20T02:08:17;97571.91;;;0.01;100.00
48563;BME280;34981;49.104;11.396;2022-11-20T02:10:44;97570.91;;;0.02;100.00
48563;BME280;34981;49.104;11.396;2022-11-20T02:13:11;97574.06;;;0.06;100.00
48563;BME280;34981;49.104;11.396;2022-11-20T02:15:57;97568.78;;;0.06;100.00
48563;BME280;34981;49.104;11.396;2022-11-20T02:18:24;97570.44;;;0.07;100.00
48563;BME280;34981;49.104;11.396;2022-11-20T02:20:56;97579.22;;;0.07;100.00
48563;BME280;34981;49.104;11.396;2022-11-20T02:23:32;97577.34;;;0.08;100.00
48563;BME280;34981;49.104;11.396;2022-11-20T02:26:03;97576.56;;;0.07;100.00
48563;BME280;34981;49.104;11.396;2022-11-20T02:28:32;97566.00;;;0.07;100.00
48563;BME280;34981;49.104;11.396;2022-11-20T02:31:00;97564.81;;;0.10;100.00
48563;BME280;34981;49.104;11.396;2022-11-20T02:33:27;97570.25;;;0.08;100.00
48563;BME280;34981;49.104;11.396;2022-11-20T02:35:54;97563.16;;;0.09;100.00
48563;BME280;34981;49.104;11.396;2022-11-20T02:38:21;97561.69;;;0.14;100.00
48563;BME280;34981;49.104;11.396;2022-11-20T02:40:48;97564.16;;;0.16;100.00
48563;BME280;34981;49.104;11.396;2022-11-20T02:43:22;97566.16;;;0.14;100.00
48563;BME280;34981;49.104;11.396;2022-11-20T02:45:49;97565.13;;;0.15;100.00
48563;BME280;34981;49.104;11.396;2022-11-20T02:48:16;97561.69;;;0.14;100.00
48563;BME280;34981;49.104;11.396;2022-11-20T02:50:43;97564.97;;;0.16;100.00
48563;BME280;34981;49.104;11.396;2022-11-20T02:53:10;97564.81;;;0.18;100.00
48563;BME280;34981;49.104;11.396;2022-11-20T02:55:41;97568.13;;;0.20;100.00
48563;BME280;34981;49.104;11.396;2022-11-20T02:58:08;97569.78;;;0.21;100.00
48563;BME280;34981;49.104;11.396;2022-11-20T03:00:35;97568.81;;;0.22;100.00
48563;BME280;34981;49.104;11.396;2022-11-20T03:03:03;97561.84;;;0.21;100.00
48563;BME280;34981;49.104;11.396;2022-11-20T03:05:30;97566.47;;;0.19;100.00
48563;BME280;34981;49.104;11.396;2022-11-20T03:07:57;97567.31;;;0.19;100.00
48563;BME280;34981;49.104;11.396;2022-11-20T03:10:24;97567.97;;;0.21;100.00
48563;BME280;34981;49.104;11.396;2022-11-20T03:12:54;97560.19;;;0.20;100.00
48563;BME280;34981;49.104;11.396;2022-11-20T03:15:22;97561.84;;;0.21;100.00
48563;BME280;34981;49.104;11.396;2022-11-20T03:17:52;97552.94;;;0.22;100.00
48563;BME280;34981;49.104;11.396;2022-11-20T03:20:19;97554.56;;;0.23;100.00
48563;BME280;34981;49.104;11.396;2022-11-20T03:22:46;97554.72;;;0.29;100.00
48563;BME280;34981;49.104;11.396;2022-11-20T03:25:13;97551.09;;;0.30;100.00
48563;BME280;34981;49.104;11.396;2022-11-20T03:27:40;97564.81;;;0.34;100.00
48563;BME280;34981;49.104;11.396;2022-11-20T03:30:08;97559.38;;;0.35;100.00
48563;BME280;34981;49.104;11.396;2022-11-20T03:32:35;97560.19;;;0.36;100.00
48563;BME280;34981;49.104;11.396;2022-11-20T03:35:02;97555.91;;;0.35;100.00
48563;BME280;34981;49.104;11.396;2022-11-20T03:37:29;97556.88;;;0.34;100.00
48563;BME280;34981;49.104;11.396;2022-11-20T03:39:57;97561.81;;;0.37;100.00
48563;BME280;34981;49.104;11.396;2022-11-20T03:42:24;97560.19;;;0.36;100.00
48563;BME280;34981;49.104;11.396;2022-11-20T03:45:10;97563.00;;;0.34;100.00
48563;BME280;34981;49.104;11.396;2022-11-20T03:47:37;97560.53;;;0.33;100.00
48563;BME280;34981;49.104;11.396;2022-11-20T03:50:04;97560.19;;;0.36;100.00
48563;BME280;34981;49.104;11.396;2022-11-20T03:52:31;97564.81;;;0.42;100.00
48563;BME280;34981;49.104;11.396;2022-11-20T03:54:58;97562.03;;;0.44;100.00
48563;BME280;34981;49.104;11.396;2022-11-20T03:57:26;97561.81;;;0.45;100.00
48563;BME280;34981;49.104;11.396;2022-11-20T03:59:53;97553.88;;;0.45;100.00
48563;BME280;34981;49.104;11.396;2022-11-20T04:02:20;97560.84;;;0.46;100.00
48563;BME280;34981;49.104;11.396;2022-11-20T04:04:47;97563.31;;;0.48;100.00
48563;BME280;34981;49.104;11.396;2022-11-20T04:07:14;97557.19;;;0.47;100.00
48563;BME280;34981;49.104;11.396;2022-11-20T04:09:42;97553.41;;;0.50;100.00
48563;BME280;34981;49.104;11.396;2022-11-20T04:12:09;97549.94;;;0.49;100.00
48563;BME280;34981;49.104;11.396;2022-11-20T04:14:36;97555.22;;;0.49;100.00
48563;BME280;34981;49.104;11.396;2022-11-20T04:17:03;97558.50;;;0.51;100.00
48563;BME280;34981;49.104;11.396;2022-11-20T04:19:30;97555.84;;;0.51;100.00
48563;BME280;34981;49.104;11.396;2022-11-20T04:21:57;97551.25;;;0.53;100.00
48563;BME280;34981;49.104;11.396;2022-11-20T04:24:25;97547.75;;;0.53;100.00
48563;BME280;34981;49.104;11.396;2022-11-20T04:26:53;97552.41;;;0.51;100.00
48563;BME280;34981;49.104;11.396;2022-11-20T04:29:20;97549.78;;;0.51;100.00
48563;BME280;34981;49.104;11.396;2022-11-20T04:31:47;97551.59;;;0.50;100.00
48563;BME280;34981;49.104;11.396;2022-11-20T04:34:17;97546.31;;;0.50;100.00
48563;BME280;34981;49.104;11.396;2022-11-20T04:36:44;97550.41;;;0.53;100.00
48563;BME280;34981;49.104;11.396;2022-11-20T04:39:12;97546.94;;;0.52;100.00
48563;BME280;34981;49.104;11.396;2022-11-20T04:41:39;97550.41;;;0.53;100.00
48563;BME280;34981;49.104;11.396;2022-11-20T04:44:06;97547.59;;;0.54;100.00
48563;BME280;34981;49.104;11.396;2022-11-20T04:46:34;97548.25;;;0.56;100.00
48563;BME280;34981;49.104;11.396;2022-11-20T04:49:02;97540.34;;;0.56;100.00
48563;BME280;34981;49.104;11.396;2022-11-20T04:51:29;97542.81;;;0.58;100.00
48563;BME280;34981;49.104;11.396;2022-11-20T04:53:56;97543.66;;;0.58;100.00
48563;BME280;34981;49.104;11.396;2022-11-20T04:56:23;97543.66;;;0.58;100.00
48563;BME280;34981;49.104;11.396;2022-11-20T04:58:51;97541.00;;;0.58;100.00
48563;BME280;34981;49.104;11.396;2022-11-20T05:01:19;97537.69;;;0.56;100.00
48563;BME280;34981;49.104;11.396;2022-11-20T05:03:47;97546.28;;;0.58;100.00
48563;BME280;34981;49.104;11.396;2022-11-20T05:06:15;97538.34;;;0.58;100.00
48563;BME280;34981;49.104;11.396;2022-11-20T05:08:42;97542.31;;;0.62;100.00
48563;BME280;34981;49.104;11.396;2022-11-20T05:11:10;97539.66;;;0.62;100.00
48563;BME280;34981;49.104;11.396;2022-11-20T05:13:37;97541.31;;;0.63;100.00
48563;BME280;34981;49.104;11.396;2022-11-20T05:16:15;97539.66;;;0.62;100.00
48563;BME280;34981;49.104;11.396;2022-11-20T05:18:44;97537.66;;;0.64;100.00
48563;BME280;34981;49.104;11.396;2022-11-20T05:21:12;97539.50;;;0.64;100.00
48563;BME280;34981;49.104;11.396;2022-11-20T05:23:39;97540.31;;;0.64;100.00
48563;BME280;34981;49.104;11.396;2022-11-20T05:26:08;97528.53;;;0.67;100.00
48563;BME280;34981;49.104;11.396;2022-11-20T05:28:35;97531.88;;;0.69;100.00
48563;BME280;34981;49.104;11.396;2022-11-20T05:33:33;97534.50;;;0.69;100.00
48563;BME280;34981;49.104;11.396;2022-11-20T05:36:01;97529.72;;;0.72;100.00
48563;BME280;34981;49.104;11.396;2022-11-20T05:38:29;97535.16;;;0.79;100.00
48563;BME280;34981;49.104;11.396;2022-11-20T05:41:02;97532.00;;;0.84;100.00
48563;BME280;34981;49.104;11.396;2022-11-20T05:43:31;97535.78;;;0.89;100.00
48563;BME280;34981;49.104;11.396;2022-11-20T05:45:58;97539.75;;;0.93;100.00
48563;BME280;34981;49.104;11.396;2022-11-20T05:48:25;97536.41;;;0.99;100.00
48563;BME280;34981;49.104;11.396;2022-11-20T05:50:52;97533.41;;;1.02;100.00
48563;BME280;34981;49.104;11.396;2022-11-20T05:53:19;97539.19;;;1.06;100.00
48563;BME280;34981;49.104;11.396;2022-11-20T05:55:46;97532.53;;;1.10;100.00
48563;BME280;34981;49.104;11.396;2022-11-20T05:58:22;97535.88;;;1.12;100.00
48563;BME280;34981;49.104;11.396;2022-11-20T06:00:49;97538.00;;;1.16;100.00
48563;BME280;34981;49.104;11.396;2022-11-20T06:03:16;97547.41;;;1.19;100.00
48563;BME280;34981;49.104;11.396;2022-11-20T06:05:43;97538.47;;;1.20;100.00
48563;BME280;34981;49.104;11.396;2022-11-20T06:08:10;97543.44;;;1.23;100.00
48563;BME280;34981;49.104;11.396;2022-11-20T06:10:37;97540.59;;;1.25;100.00
48563;BME280;34981;49.104;11.396;2022-11-20T06:13:04;97550.53;;;1.31;100.00
48563;BME280;34981;49.104;11.396;2022-11-20T06:15:31;97545.22;;;1.31;100.00
48563;BME280;34981;49.104;11.396;2022-11-20T06:17:58;97542.38;;;1.32;100.00
48563;BME280;34981;49.104;11.396;2022-11-20T06:20:25;97544.53;;;1.37;100.00
48563;BME280;34981;49.104;11.396;2022-11-20T06:22:53;97541.34;;;1.41;100.00
48563;BME280;34981;49.104;11.396;2022-11-20T06:25:20;97542.03;;;1.43;100.00
48563;BME280;34981;49.104;11.396;2022-11-20T06:27:47;97542.31;;;1.48;100.00
48563;BME280;34981;49.104;11.396;2022-11-20T06:30:14;97541.97;;;1.51;100.00
48563;BME280;34981;49.104;11.396;2022-11-20T06:32:41;97547.13;;;1.53;100.00
48563;BME280;34981;49.104;11.396;2022-11-20T06:35:08;97553.22;;;1.53;100.00
48563;BME280;34981;49.104;11.396;2022-11-20T06:37:35;97549.41;;;1.56;100.00
48563;BME280;34981;49.104;11.396;2022-11-20T06:40:03;97557.00;;;1.59;100.00
48563;BME280;34981;49.104;11.396;2022-11-20T06:42:30;97556.84;;;1.61;100.00
48563;BME280;34981;49.104;11.396;2022-11-20T06:44:57;97552.50;;;1.68;100.00
48563;BME280;34981;49.104;11.396;2022-11-20T06:47:24;97564.22;;;1.73;100.00
48563;BME280;34981;49.104;11.396;2022-11-20T06:49:51;97571.19;;;1.74;100.00
48563;BME280;34981;49.104;11.396;2022-11-20T06:52:18;97567.69;;;1.74;100.00
48563;BME280;34981;49.104;11.396;2022-11-20T06:54:45;97572.00;;;1.75;100.00
48563;BME280;34981;49.104;11.396;2022-11-20T06:57:13;97576.66;;;1.73;100.00
48563;BME280;34981;49.104;11.396;2022-11-20T06:59:40;97575.00;;;1.72;100.00
48563;BME280;34981;49.104;11.396;2022-11-20T07:02:09;97587.72;;;1.76;100.00
48563;BME280;34981;49.104;11.396;2022-11-20T07:04:37;97576.78;;;1.79;100.00
48563;BME280;34981;49.104;11.396;2022-11-20T07:07:05;97581.75;;;1.82;100.00
48563;BME280;34981;49.104;11.396;2022-11-20T07:09:33;97572.75;;;1.83;100.00
48563;BME280;34981;49.104;11.396;2022-11-20T07:12:00;97580.53;;;1.85;100.00
48563;BME280;34981;49.104;11.396;2022-11-20T07:14:27;97582.19;;;1.86;100.00
48563;BME280;34981;49.104;11.396;2022-11-20T07:16:54;97583.03;;;1.86;100.00
48563;BME280;34981;49.104;11.396;2022-11-20T07:19:21;97584.19;;;1.84;100.00
48563;BME280;34981;49.104;11.396;2022-11-20T07:21:49;97585.03;;;1.84;100.00
48563;BME280;34981;49.104;11.396;2022-11-20T07:24:16;97586.38;;;1.80;100.00
48563;BME280;34981;49.104;11.396;2022-11-20T07:26:45;97587.22;;;1.81;100.00
48563;BME280;34981;49.104;11.396;2022-11-20T07:29:13;97590.50;;;1.83;100.00
48563;BME280;34981;49.104;11.396;2022-11-20T07:31:41;97583.38;;;1.83;100.00
48563;BME280;34981;49.104;11.396;2022-11-20T07:34:08;97587.84;;;1.83;100.00
48563;BME280;34981;49.104;11.396;2022-11-20T07:36:35;97587.84;;;1.83;100.00
48563;BME280;34981;49.104;11.396;2022-11-20T07:39:02;97592.81;;;1.86;100.00
48563;BME280;34981;49.104;11.396;2022-11-20T07:41:29;97589.16;;;1.87;100.00
48563;BME280;34981;49.104;11.396;2022-11-20T07:43:56;97590.31;;;1.84;100.00
48563;BME280;34981;49.104;11.396;2022-11-20T07:46:24;97590.81;;;1.88;100.00
48563;BME280;34981;49.104;11.396;2022-11-20T07:48:51;97591.28;;;1.91;100.00
48563;BME280;34981;49.104;11.396;2022-11-20T07:51:18;97579.00;;;1.90;100.00
48563;BME280;34981;49.104;11.396;2022-11-20T07:53:45;97591.28;;;1.91;100.00
48563;BME280;34981;49.104;11.396;2022-11-20T07:56:13;97586.13;;;1.90;100.00
48563;BME280;34981;49.104;11.396;2022-11-20T07:58:41;97583.50;;;1.90;100.00
48563;BME280;34981;49.104;11.396;2022-11-20T08:01:08;97589.44;;;1.92;100.00
48563;BME280;34981;49.104;11.396;2022-11-20T08:03:35;97590.56;;;1.98;100.00
48563;BME280;34981;49.104;11.396;2022-11-20T08:06:06;97597.53;;;1.99;100.00
48563;BME280;34981;49.104;11.396;2022-11-20T08:08:33;97593.06;;;1.99;100.00
48563;BME280;34981;49.104;11.396;2022-11-20T08:11:06;97589.41;;;2.00;100.00
48563;BME280;34981;49.104;11.396;2022-11-20T08:13:51;97592.72;;;2.02;100.00
48563;BME280;34981;49.104;11.396;2022-11-20T08:16:45;97592.72;;;2.02;100.00
48563;BME280;34981;49.104;11.396;2022-11-20T08:19:13;97584.38;;;2.05;100.00
48563;BME280;34981;49.104;11.396;2022-11-20T08:21:40;97590.00;;;2.10;100.00
48563;BME280;34981;49.104;11.396;2022-11-20T08:24:08;97604.38;;;2.16;100.00
48563;BME280;34981;49.104;11.396;2022-11-20T08:26:36;97600.91;;;2.15;100.00
48563;BME280;34981;49.104;11.396;2022-11-20T08:29:04;97605.88;;;2.18;100.00
48563;BME280;34981;49.104;11.396;2022-11-20T08:31:31;97600.97;;;2.30;100.00
48563;BME280;34981;49.104;11.396;2022-11-20T08:33:58;97602.75;;;2.38;100.00
48563;BME280;34981;49.104;11.396;2022-11-20T08:36:25;97604.03;;;2.42;100.00
48563;BME280;34981;49.104;11.396;2022-11-20T08:38:53;97608.63;;;2.48;100.00
48563;BME280;34981;49.104;11.396;2022-11-20T08:41:21;97615.72;;;2.55;100.00
48563;BME280;34981;49.104;11.396;2022-11-20T08:43:53;97616.50;;;2.56;100.00
48563;BME280;34981;49.104;11.396;2022-11-20T08:46:23;97605.19;;;2.62;100.00
48563;BME280;34981;49.104;11.396;2022-11-20T08:48:51;97619.09;;;2.64;100.00
48563;BME280;34981;49.104;11.396;2022-11-20T08:51:19;97622.06;;;2.69;100.00
48563;BME280;34981;49.104;11.396;2022-11-20T08:53:46;97616.94;;;2.67;100.00
48563;BME280;34981;49.104;11.396;2022-11-20T08:56:15;97616.75;;;2.69;100.00
48563;BME280;34981;49.104;11.396;2022-11-20T08:58:43;97621.25;;;2.68;100.00
48563;BME280;34981;49.104;11.396;2022-11-20T09:01:30;97608.13;;;2.67;100.00
48563;BME280;34981;49.104;11.396;2022-11-20T09:03:57;97619.09;;;2.64;100.00
48563;BME280;34981;49.104;11.396;2022-11-20T09:06:24;97623.59;;;2.63;100.00
48563;BME280;34981;49.104;11.396;2022-11-20T09:08:55;97621.13;;;2.62;100.00
48563;BME280;34981;49.104;11.396;2022-11-20T09:11:22;97629.72;;;2.64;100.00
48563;BME280;34981;49.104;11.396;2022-11-20T09:13:51;97625.44;;;2.63;100.00
48563;BME280;34981;49.104;11.396;2022-11-20T09:16:18;97617.09;;;2.66;100.00
48563;BME280;34981;49.104;11.396;2022-11-20T09:18:45;97620.41;;;2.68;100.00
48563;BME280;34981;49.104;11.396;2022-11-20T09:21:13;97620.03;;;2.71;100.00
48563;BME280;34981;49.104;11.396;2022-11-20T09:23:40;97623.00;;;2.76;100.00
48563;BME280;34981;49.104;11.396;2022-11-20T09:26:11;97620.97;;;2.78;100.00
48563;BME280;34981;49.104;11.396;2022-11-20T09:28:39;97610.34;;;2.78;100.00
48563;BME280;34981;49.104;11.396;2022-11-20T09:31:21;97613.66;;;2.80;100.00
48563;BME280;34981;49.104;11.396;2022-11-20T09:33:49;97605.69;;;2.80;100.00
48563;BME280;34981;49.104;11.396;2022-11-20T09:36:16;97613.81;;;2.79;100.00
48563;BME280;34981;49.104;11.396;2022-11-20T09:38:45;97610.34;;;2.78;100.00
48563;BME280;34981;49.104;11.396;2022-11-20T09:44:09;97603.03;;;2.80;100.00
48563;BME280;34981;49.104;11.396;2022-11-20T09:46:55;97599.03;;;2.84;100.00
48563;BME280;34981;49.104;11.396;2022-11-20T09:52:09;97606.78;;;2.86;100.00
48563;BME280;34981;49.104;11.396;2022-11-20T09:54:40;97601.31;;;2.87;100.00
48563;BME280;34981;49.104;11.396;2022-11-20T09:57:11;97603.97;;;2.87;100.00
48563;BME280;34981;49.104;11.396;2022-11-20T09:59:44;97599.03;;;2.84;100.00
48563;BME280;34981;49.104;11.396;2022-11-20T10:04:54;97595.34;;;2.85;100.00
48563;BME280;34981;49.104;11.396;2022-11-20T10:07:24;97595.16;;;2.87;100.00
48563;BME280;34981;49.104;11.396;2022-11-20T10:09:59;97600.31;;;2.88;100.00
48563;BME280;34981;49.104;11.396;2022-11-20T10:15:04;97583.19;;;2.91;100.00
48563;BME280;34981;49.104;11.396;2022-11-20T10:23:00;97583.56;;;3.02;100.00
48563;BME280;34981;49.104;11.396;2022-11-20T10:30:45;97586.41;;;3.16;100.00
48563;BME280;34981;49.104;11.396;2022-11-20T10:33:15;97589.88;;;3.16;100.00
48563;BME280;34981;49.104;11.396;2022-11-20T10:35:44;97593.75;;;3.13;100.00
48563;BME280;34981;49.104;11.396;2022-11-20T10:38:25;97597.22;;;3.14;100.00
48563;BME280;34981;49.104;11.396;2022-11-20T10:40:57;97599.06;;;3.13;100.00
48563;BME280;34981;49.104;11.396;2022-11-20T10:43:46;97589.25;;;3.14;100.00
48563;BME280;34981;49.104;11.396;2022-11-20T10:46:15;97588.69;;;3.19;100.00
48563;BME280;34981;49.104;11.396;2022-11-20T10:48:44;97592.19;;;3.19;100.00
48563;BME280;34981;49.104;11.396;2022-11-20T10:51:30;97592.19;;;3.19;100.00
48563;BME280;34981;49.104;11.396;2022-11-20T10:54:00;97585.66;;;3.22;100.00
48563;BME280;34981;49.104;11.396;2022-11-20T11:01:44;97590.78;;;3.38;100.00
48563;BME280;34981;49.104;11.396;2022-11-20T11:04:54;97595.09;;;3.39;100.00
48563;BME280;34981;49.104;11.396;2022-11-20T11:07:06;97582.00;;;3.37;100.00
48563;BME280;34981;49.104;11.396;2022-11-20T11:09:38;97587.13;;;3.39;100.00
48563;BME280;34981;49.104;11.396;2022-11-20T11:12:07;97583.47;;;3.40;100.00
48563;BME280;34981;49.104;11.396;2022-11-20T11:17:33;97590.25;;;3.42;100.00
48563;BME280;34981;49.104;11.396;2022-11-20T11:22:29;97579.16;;;3.39;100.00
48563;BME280;34981;49.104;11.396;2022-11-20T11:24:57;97581.38;;;3.35;100.00
48563;BME280;34981;49.104;11.396;2022-11-20T11:27:24;97584.22;;;3.34;100.00
48563;BME280;34981;49.104;11.396;2022-11-20T11:30:00;97578.91;;;3.34;100.00
48563;BME280;34981;49.104;11.396;2022-11-20T11:32:28;97572.94;;;3.32;100.00
48563;BME280;34981;49.104;11.396;2022-11-20T11:35:02;97571.09;;;3.32;100.00
48563;BME280;34981;49.104;11.396;2022-11-20T11:37:34;97570.09;;;3.33;100.00
48563;BME280;34981;49.104;11.396;2022-11-20T11:40:03;97574.41;;;3.34;100.00
48563;BME280;34981;49.104;11.396;2022-11-20T11:42:58;97556.41;;;3.36;100.00
48563;BME280;34981;49.104;11.396;2022-11-20T11:45:25;97566.25;;;3.36;100.00
48563;BME280;34981;49.104;11.396;2022-11-20T11:47:53;97566.25;;;3.36;100.00
48563;BME280;34981;49.104;11.396;2022-11-20T11:50:26;97568.09;;;3.35;100.00
48563;BME280;34981;49.104;11.396;2022-11-20T11:55:31;97566.44;;;3.34;100.00
48563;BME280;34981;49.104;11.396;2022-11-20T11:58:09;97566.44;;;3.34;100.00
48563;BME280;34981;49.104;11.396;2022-11-20T12:00:39;97559.28;;;3.35;100.00
48563;BME280;34981;49.104;11.396;2022-11-20T12:10:46;97560.44;;;3.47;100.00
48563;BME280;34981;49.104;11.396;2022-11-20T12:15:45;97546.81;;;3.50;100.00
48563;BME280;34981;49.104;11.396;2022-11-20T12:18:18;97548.25;;;3.52;100.00
48563;BME280;34981;49.104;11.396;2022-11-20T12:26:35;97539.63;;;3.65;100.00
48563;BME280;34981;49.104;11.396;2022-11-20T12:29:10;97549.22;;;3.66;100.00
48563;BME280;34981;49.104;11.396;2022-11-20T12:39:42;97549.09;;;3.74;100.00
48563;BME280;34981;49.104;11.396;2022-11-20T12:42:26;97556.53;;;3.79;100.00
48563;BME280;34981;49.104;11.396;2022-11-20T12:51:18;97562.69;;;3.79;100.00
48563;BME280;34981;49.104;11.396;2022-11-20T12:56:24;97558.75;;;3.75;100.00
48563;BME280;34981;49.104;11.396;2022-11-20T13:01:37;97542.81;;;3.61;100.00
48563;BME280;34981;49.104;11.396;2022-11-20T13:06:41;97539.97;;;3.62;100.00
48563;BME280;34981;49.104;11.396;2022-11-20T13:09:09;97542.81;;;3.61;100.00
48563;BME280;34981;49.104;11.396;2022-11-20T13:11:40;97543.00;;;3.59;100.00
48563;BME280;34981;49.104;11.396;2022-11-20T13:16:58;97537.56;;;3.67;100.00
48563;BME280;34981;49.104;11.396;2022-11-20T13:19:32;97550.34;;;3.72;100.00
48563;BME280;34981;49.104;11.396;2022-11-20T13:21:59;97541.97;;;3.75;100.00
48563;BME280;34981;49.104;11.396;2022-11-20T13:24:28;97539.22;;;3.68;100.00
48563;BME280;34981;49.104;11.396;2022-11-20T13:27:04;97542.91;;;3.67;100.00
48563;BME280;34981;49.104;11.396;2022-11-20T13:29:32;97537.41;;;3.69;100.00
48563;BME280;34981;49.104;11.396;2022-11-20T13:32:16;97534.72;;;3.69;100.00
48563;BME280;34981;49.104;11.396;2022-11-20T13:34:57;97522.44;;;3.68;100.00
48563;BME280;34981;49.104;11.396;2022-11-20T13:39:52;97528.22;;;3.71;100.00
48563;BME280;34981;49.104;11.396;2022-11-20T13:42:27;97525.94;;;3.68;100.00
48563;BME280;34981;49.104;11.396;2022-11-20T13:44:55;97524.75;;;3.71;100.00
48563;BME280;34981;49.104;11.396;2022-11-20T13:47:27;97523.91;;;3.70;100.00
48563;BME280;34981;49.104;11.396;2022-11-20T13:49:57;97523.91;;;3.70;100.00
48563;BME280;34981;49.104;11.396;2022-11-20T14:02:42;97528.19;;;3.86;100.00
48563;BME280;34981;49.104;11.396;2022-11-20T14:05:17;97528.38;;;3.84;100.00
48563;BME280;34981;49.104;11.396;2022-11-20T14:07:45;97529.72;;;3.80;100.00
48563;BME280;34981;49.104;11.396;2022-11-20T14:10:22;97522.16;;;3.77;100.00
48563;BME280;34981;49.104;11.396;2022-11-20T14:12:57;97524.81;;;3.77;100.00
48563;BME280;34981;49.104;11.396;2022-11-20T14:15:25;97526.66;;;3.77;100.00
48563;BME280;34981;49.104;11.396;2022-11-20T14:17:52;97534.63;;;3.77;100.00
48563;BME280;34981;49.104;11.396;2022-11-20T14:20:20;97535.44;;;3.77;100.00
48563;BME280;34981;49.104;11.396;2022-11-20T14:22:52;97529.31;;;3.77;100.00
48563;BME280;34981;49.104;11.396;2022-11-20T14:25:21;97534.44;;;3.78;100.00
48563;BME280;34981;49.104;11.396;2022-11-20T14:27:51;97535.44;;;3.77;100.00
48563;BME280;34981;49.104;11.396;2022-11-20T14:30:20;97545.09;;;3.78;100.00
48563;BME280;34981;49.104;11.396;2022-11-20T14:32:48;97540.78;;;3.77;100.00
48563;BME280;34981;49.104;11.396;2022-11-20T14:35:21;97535.44;;;3.77;100.00
48563;BME280;34981;49.104;11.396;2022-11-20T14:37:53;97539.13;;;3.76;100.00
48563;BME280;34981;49.104;11.396;2022-11-20T14:40:25;97538.28;;;3.76;100.00